sensor_id;sensor_type;location;lat;lon;timestamp;pressure;altitude;pressure_sealevel;temperature;humidity
54924;BME280;40825;52.270;20.984;2023-02-21T00:00:31;99146.90;;;6.42;100.00
54924;BME280;40825;52.270;20.984;2023-02-21T00:03:23;99137.70;;;6.44;100.00
54924;BME280;40825;52.270;20.984;2023-02-21T00:06:08;99132.48;;;6.46;100.00
54924;BME280;40825;52.270;20.984;2023-02-21T00:08:53;99133.92;;;6.49;100.00
54924;BME280;40825;52.270;20.984;2023-02-21T00:11:44;99145.16;;;6.52;100.00
54924;BME280;40825;52.270;20.984;2023-02-21T00:14:28;99155.63;;;6.58;99.66
54924;BME280;40825;52.270;20.984;2023-02-21T00:17:12;99168.02;;;6.63;98.30
54924;BME280;40825;52.270;20.984;2023-02-21T00:19:56;99179.79;;;6.65;98.11
54924;BME280;40825;52.270;20.984;2023-02-21T00:22:40;99176.98;;;6.68;96.53
54924;BME280;40825;52.270;20.984;2023-02-21T00:25:25;99165.83;;;6.70;95.57
54924;BME280;40825;52.270;20.984;2023-02-21T00:28:09;99163.00;;;6.69;95.16
54924;BME280;40825;52.270;20.984;2023-02-21T00:30:53;99158.11;;;6.69;94.74
54924;BME280;40825;52.270;20.984;2023-02-21T00:33:37;99163.21;;;6.68;94.48
54924;BME280;40825;52.270;20.984;2023-02-21T00:36:21;99164.40;;;6.64;95.71
54924;BME280;40825;52.270;20.984;2023-02-21T00:39:05;99169.27;;;6.60;96.41
54924;BME280;40825;52.270;20.984;2023-02-21T00:41:50;99162.70;;;6.59;96.81
54924;BME280;40825;52.270;20.984;2023-02-21T00:44:34;99160.30;;;6.61;95.71
54924;BME280;40825;52.270;20.984;2023-02-21T00:47:18;99160.31;;;6.61;95.63
54924;BME280;40825;52.270;20.984;2023-02-21T00:50:03;99153.75;;;6.63;95.41
54924;BME280;40825;52.270;20.984;2023-02-21T00:52:47;99149.88;;;6.65;95.38
54924;BME280;40825;52.270;20.984;2023-02-21T00:55:32;99150.42;;;6.67;95.52
54924;BME280;40825;52.270;20.984;2023-02-21T00:58:20;99150.30;;;6.68;95.25
54924;BME280;40825;52.270;20.984;2023-02-21T01:01:06;99145.58;;;6.69;94.91
54924;BME280;40825;52.270;20.984;2023-02-21T01:03:50;99146.77;;;6.69;94.35
54924;BME280;40825;52.270;20.984;2023-02-21T01:06:34;99150.39;;;6.70;93.92
54924;BME280;40825;52.270;20.984;2023-02-21T01:09:18;99152.17;;;6.74;92.72
54924;BME280;40825;52.270;20.984;2023-02-21T01:12:03;99154.03;;;6.79;91.31
54924;BME280;40825;52.270;20.984;2023-02-21T01:14:47;99145.72;;;6.79;90.98
54924;BME280;40825;52.270;20.984;2023-02-21T01:17:31;99151.26;;;6.80;89.69
54924;BME280;40825;52.270;20.984;2023-02-21T01:20:15;99145.91;;;6.80;88.22
54924;BME280;40825;52.270;20.984;2023-02-21T01:22:59;99153.91;;;6.78;88.43
54924;BME280;40825;52.270;20.984;2023-02-21T01:25:44;99153.70;;;6.77;89.42
54924;BME280;40825;52.270;20.984;2023-02-21T01:28:28;99148.73;;;6.74;88.54
54924;BME280;40825;52.270;20.984;2023-02-21T01:31:17;99147.80;;;6.73;87.01
54924;BME280;40825;52.270;20.984;2023-02-21T01:34:02;99146.73;;;6.72;86.43
54924;BME280;40825;52.270;20.984;2023-02-21T01:36:46;99141.39;;;6.70;86.07
54924;BME280;40825;52.270;20.984;2023-02-21T01:39:30;99141.34;;;6.68;86.05
54924;BME280;40825;52.270;20.984;2023-02-21T01:42:15;99145.69;;;6.67;86.05
54924;BME280;40825;52.270;20.984;2023-02-21T01:48:04;99145.95;;;6.63;84.47
54924;BME280;40825;52.270;20.984;2023-02-21T01:50:48;99146.71;;;6.68;81.23
54924;BME280;40825;52.270;20.984;2023-02-21T01:53:32;99152.34;;;6.67;82.92
54924;BME280;40825;52.270;20.984;2023-02-21T01:56:16;99150.48;;;6.68;81.98
54924;BME280;40825;52.270;20.984;2023-02-21T01:59:01;99148.10;;;6.68;81.48
54924;BME280;40825;52.270;20.984;2023-02-21T02:04:52;99138.00;;;6.62;82.86
54924;BME280;40825;52.270;20.984;2023-02-21T02:07:37;99134.52;;;6.59;83.30
54924;BME280;40825;52.270;20.984;2023-02-21T02:10:22;99139.65;;;6.58;83.37
54924;BME280;40825;52.270;20.984;2023-02-21T02:21:27;99144.92;;;6.53;83.69
54924;BME280;40825;52.270;20.984;2023-02-21T02:35:32;99142.07;;;6.53;84.68
54924;BME280;40825;52.270;20.984;2023-02-21T02:38:13;99144.11;;;6.52;84.44
54924;BME280;40825;52.270;20.984;2023-02-21T02:43:34;99149.02;;;6.53;84.38
54924;BME280;40825;52.270;20.984;2023-02-21T02:46:14;99145.87;;;6.54;82.77
54924;BME280;40825;52.270;20.984;2023-02-21T02:48:46;99145.75;;;6.53;82.19
54924;BME280;40825;52.270;20.984;2023-02-21T02:51:15;99143.53;;;6.53;81.58
54924;BME280;40825;52.270;20.984;2023-02-21T02:53:41;99143.52;;;6.56;79.79
54924;BME280;40825;52.270;20.984;2023-02-21T02:56:09;99141.43;;;6.56;80.54
54924;BME280;40825;52.270;20.984;2023-02-21T02:58:50;99144.00;;;6.56;80.14
54924;BME280;40825;52.270;20.984;2023-02-21T03:07:33;99136.48;;;6.59;78.07
54924;BME280;40825;52.270;20.984;2023-02-21T03:13:05;99135.70;;;6.59;78.44
54924;BME280;40825;52.270;20.984;2023-02-21T03:18:15;99135.58;;;6.60;78.39
54924;BME280;40825;52.270;20.984;2023-02-21T03:20:44;99137.52;;;6.64;78.62
54924;BME280;40825;52.270;20.984;2023-02-21T03:23:13;99138.74;;;6.64;78.71
54924;BME280;40825;52.270;20.984;2023-02-21T03:25:39;99138.73;;;6.64;78.13
54924;BME280;40825;52.270;20.984;2023-02-21T03:28:05;99141.26;;;6.63;77.82
54924;BME280;40825;52.270;20.984;2023-02-21T03:30:31;99134.57;;;6.64;77.46
54924;BME280;40825;52.270;20.984;2023-02-21T03:32:57;99133.42;;;6.61;77.57
54924;BME280;40825;52.270;20.984;2023-02-21T03:35:27;99139.50;;;6.61;76.70
54924;BME280;40825;52.270;20.984;2023-02-21T03:37:57;99138.95;;;6.58;76.53
54924;BME280;40825;52.270;20.984;2023-02-21T03:40:29;99136.27;;;6.58;76.02
54924;BME280;40825;52.270;20.984;2023-02-21T03:42:56;99135.30;;;6.59;75.86
54924;BME280;40825;52.270;20.984;2023-02-21T03:45:22;99137.70;;;6.61;75.37
54924;BME280;40825;52.270;20.984;2023-02-21T03:47:48;99129.52;;;6.57;76.25
54924;BME280;40825;52.270;20.984;2023-02-21T03:50:14;99134.00;;;6.54;76.60
54924;BME280;40825;52.270;20.984;2023-02-21T03:52:40;99131.88;;;6.48;77.41
54924;BME280;40825;52.270;20.984;2023-02-21T03:55:06;99140.05;;;6.44;77.21
54924;BME280;40825;52.270;20.984;2023-02-21T03:57:32;99144.23;;;6.40;76.55
54924;BME280;40825;52.270;20.984;2023-02-21T03:59:58;99145.86;;;6.38;76.96
54924;BME280;40825;52.270;20.984;2023-02-21T04:02:23;99146.17;;;6.36;76.39
54924;BME280;40825;52.270;20.984;2023-02-21T04:04:49;99140.70;;;6.33;77.56
54924;BME280;40825;52.270;20.984;2023-02-21T04:07:17;99137.50;;;6.30;77.72
54924;BME280;40825;52.270;20.984;2023-02-21T04:09:43;99144.21;;;6.29;76.76
54924;BME280;40825;52.270;20.984;2023-02-21T04:12:09;99145.27;;;6.29;74.66
54924;BME280;40825;52.270;20.984;2023-02-21T04:14:35;99144.30;;;6.25;76.24
54924;BME280;40825;52.270;20.984;2023-02-21T04:17:01;99150.48;;;6.22;75.02
54924;BME280;40825;52.270;20.984;2023-02-21T04:19:26;99151.27;;;6.24;73.42
54924;BME280;40825;52.270;20.984;2023-02-21T04:21:52;99138.17;;;6.23;72.45
54924;BME280;40825;52.270;20.984;2023-02-21T04:24:17;99135.23;;;6.21;73.10
54924;BME280;40825;52.270;20.984;2023-02-21T04:26:43;99140.52;;;6.19;73.80
54924;BME280;40825;52.270;20.984;2023-02-21T04:29:09;99133.13;;;6.17;73.44
54924;BME280;40825;52.270;20.984;2023-02-21T04:31:35;99131.96;;;6.14;72.84
54924;BME280;40825;52.270;20.984;2023-02-21T04:34:00;99136.98;;;6.09;74.54
54924;BME280;40825;52.270;20.984;2023-02-21T04:36:26;99148.62;;;6.06;72.17
54924;BME280;40825;52.270;20.984;2023-02-21T04:38:52;99147.92;;;6.06;71.47
54924;BME280;40825;52.270;20.984;2023-02-21T04:41:18;99153.27;;;6.07;71.12
54924;BME280;40825;52.270;20.984;2023-02-21T04:43:44;99157.88;;;6.07;70.96
54924;BME280;40825;52.270;20.984;2023-02-21T04:46:11;99159.09;;;6.06;72.00
54924;BME280;40825;52.270;20.984;2023-02-21T04:48:45;99162.09;;;6.03;72.17
54924;BME280;40825;52.270;20.984;2023-02-21T04:51:13;99165.23;;;6.03;69.28
54924;BME280;40825;52.270;20.984;2023-02-21T04:53:39;99168.11;;;6.02;70.19
54924;BME280;40825;52.270;20.984;2023-02-21T04:56:05;99159.51;;;6.02;70.11
54924;BME280;40825;52.270;20.984;2023-02-21T04:58:31;99162.10;;;6.01;70.18
54924;BME280;40825;52.270;20.984;2023-02-21T05:00:57;99164.32;;;6.02;69.29
54924;BME280;40825;52.270;20.984;2023-02-21T05:03:23;99162.95;;;6.01;70.13
54924;BME280;40825;52.270;20.984;2023-02-21T05:05:50;99153.67;;;6.01;69.20
54924;BME280;40825;52.270;20.984;2023-02-21T05:08:16;99159.30;;;6.01;68.55
54924;BME280;40825;52.270;20.984;2023-02-21T05:10:42;99161.15;;;6.03;67.65
54924;BME280;40825;52.270;20.984;2023-02-21T05:13:07;99166.20;;;6.05;67.21
54924;BME280;40825;52.270;20.984;2023-02-21T05:15:33;99169.29;;;6.08;66.45
54924;BME280;40825;52.270;20.984;2023-02-21T05:17:59;99172.52;;;6.09;66.56
54924;BME280;40825;52.270;20.984;2023-02-21T05:20:25;99166.48;;;6.11;66.17
54924;BME280;40825;52.270;20.984;2023-02-21T05:22:50;99172.40;;;6.13;64.89
54924;BME280;40825;52.270;20.984;2023-02-21T05:25:18;99172.04;;;6.14;65.54
54924;BME280;40825;52.270;20.984;2023-02-21T05:27:44;99169.65;;;6.15;65.63
54924;BME280;40825;52.270;20.984;2023-02-21T05:30:11;99170.56;;;6.14;65.41
54924;BME280;40825;52.270;20.984;2023-02-21T05:32:37;99172.56;;;6.14;65.66
54924;BME280;40825;52.270;20.984;2023-02-21T05:35:03;99163.84;;;6.14;65.57
54924;BME280;40825;52.270;20.984;2023-02-21T05:37:29;99175.02;;;6.15;65.29
54924;BME280;40825;52.270;20.984;2023-02-21T05:39:55;99170.23;;;6.17;64.95
54924;BME280;40825;52.270;20.984;2023-02-21T05:42:20;99173.05;;;6.18;64.65
54924;BME280;40825;52.270;20.984;2023-02-21T05:44:46;99178.81;;;6.19;64.99
54924;BME280;40825;52.270;20.984;2023-02-21T05:47:13;99173.91;;;6.20;64.96
54924;BME280;40825;52.270;20.984;2023-02-21T05:49:40;99176.00;;;6.20;65.32
54924;BME280;40825;52.270;20.984;2023-02-21T05:52:06;99184.52;;;6.21;65.14
54924;BME280;40825;52.270;20.984;2023-02-21T05:54:32;99192.64;;;6.22;65.17
54924;BME280;40825;52.270;20.984;2023-02-21T05:56:58;99189.71;;;6.21;65.74
54924;BME280;40825;52.270;20.984;2023-02-21T05:59:24;99192.20;;;6.22;65.60
54924;BME280;40825;52.270;20.984;2023-02-21T06:01:50;99191.34;;;6.23;66.14
54924;BME280;40825;52.270;20.984;2023-02-21T06:04:17;99195.52;;;6.24;66.48
54924;BME280;40825;52.270;20.984;2023-02-21T06:06:43;99196.52;;;6.23;66.73
54924;BME280;40825;52.270;20.984;2023-02-21T06:09:09;99193.91;;;6.23;66.72
54924;BME280;40825;52.270;20.984;2023-02-21T06:11:36;99196.21;;;6.24;66.16
54924;BME280;40825;52.270;20.984;2023-02-21T06:14:04;99191.43;;;6.24;66.01
54924;BME280;40825;52.270;20.984;2023-02-21T06:16:35;99193.15;;;6.25;66.05
54924;BME280;40825;52.270;20.984;2023-02-21T06:19:02;99196.55;;;6.26;65.56
54924;BME280;40825;52.270;20.984;2023-02-21T06:21:29;99198.61;;;6.25;66.11
54924;BME280;40825;52.270;20.984;2023-02-21T06:23:55;99205.45;;;6.25;66.15
54924;BME280;40825;52.270;20.984;2023-02-21T06:26:21;99206.16;;;6.25;66.21
54924;BME280;40825;52.270;20.984;2023-02-21T06:28:48;99204.20;;;6.25;66.16
54924;BME280;40825;52.270;20.984;2023-02-21T06:31:15;99209.64;;;6.26;66.13
54924;BME280;40825;52.270;20.984;2023-02-21T06:33:41;99202.05;;;6.25;65.98
54924;BME280;40825;52.270;20.984;2023-02-21T06:36:11;99204.25;;;6.26;65.79
54924;BME280;40825;52.270;20.984;2023-02-21T06:38:37;99201.98;;;6.27;65.39
54924;BME280;40825;52.270;20.984;2023-02-21T06:41:07;99212.73;;;6.29;65.28
54924;BME280;40825;52.270;20.984;2023-02-21T06:43:33;99213.50;;;6.30;65.55
54924;BME280;40825;52.270;20.984;2023-02-21T06:46:00;99218.02;;;6.30;65.66
54924;BME280;40825;52.270;20.984;2023-02-21T06:48:26;99224.69;;;6.32;65.53
54924;BME280;40825;52.270;20.984;2023-02-21T06:50:52;99229.80;;;6.33;64.94
54924;BME280;40825;52.270;20.984;2023-02-21T06:53:17;99232.59;;;6.31;65.04
54924;BME280;40825;52.270;20.984;2023-02-21T06:55:43;99236.55;;;6.32;65.28
54924;BME280;40825;52.270;20.984;2023-02-21T06:58:08;99238.10;;;6.32;65.07
54924;BME280;40825;52.270;20.984;2023-02-21T07:00:35;99237.23;;;6.34;65.30
54924;BME280;40825;52.270;20.984;2023-02-21T07:03:02;99246.53;;;6.35;65.22
54924;BME280;40825;52.270;20.984;2023-02-21T07:05:27;99251.73;;;6.36;65.62
54924;BME280;40825;52.270;20.984;2023-02-21T07:07:53;99254.73;;;6.37;65.93
54924;BME280;40825;52.270;20.984;2023-02-21T07:10:20;99258.63;;;6.40;66.01
54924;BME280;40825;52.270;20.984;2023-02-21T07:12:46;99263.77;;;6.43;66.19
54924;BME280;40825;52.270;20.984;2023-02-21T07:15:11;99271.33;;;6.41;66.12
54924;BME280;40825;52.270;20.984;2023-02-21T07:17:37;99278.90;;;6.40;66.28
54924;BME280;40825;52.270;20.984;2023-02-21T07:20:03;99287.29;;;6.42;65.84
54924;BME280;40825;52.270;20.984;2023-02-21T07:22:29;99295.18;;;6.40;66.04
54924;BME280;40825;52.270;20.984;2023-02-21T07:24:55;99293.80;;;6.41;66.17
54924;BME280;40825;52.270;20.984;2023-02-21T07:27:21;99294.04;;;6.39;66.50
54924;BME280;40825;52.270;20.984;2023-02-21T07:29:48;99301.87;;;6.40;66.23
54924;BME280;40825;52.270;20.984;2023-02-21T07:32:15;99312.67;;;6.34;66.83
54924;BME280;40825;52.270;20.984;2023-02-21T07:34:41;99321.02;;;6.33;67.24
54924;BME280;40825;52.270;20.984;2023-02-21T07:37:06;99325.89;;;6.34;67.67
54924;BME280;40825;52.270;20.984;2023-02-21T07:39:32;99334.64;;;6.37;67.66
54924;BME280;40825;52.270;20.984;2023-02-21T07:41:58;99343.40;;;6.33;67.96
54924;BME280;40825;52.270;20.984;2023-02-21T07:44:23;99336.69;;;6.30;68.05
54924;BME280;40825;52.270;20.984;2023-02-21T07:46:48;99344.13;;;6.28;68.42
54924;BME280;40825;52.270;20.984;2023-02-21T07:49:14;99347.27;;;6.27;68.48
54924;BME280;40825;52.270;20.984;2023-02-21T07:51:40;99349.08;;;6.31;68.53
54924;BME280;40825;52.270;20.984;2023-02-21T07:54:05;99353.97;;;6.28;68.71
54924;BME280;40825;52.270;20.984;2023-02-21T07:56:31;99355.76;;;6.30;68.71
54924;BME280;40825;52.270;20.984;2023-02-21T07:58:56;99360.48;;;6.27;68.80
54924;BME280;40825;52.270;20.984;2023-02-21T08:01:23;99362.52;;;6.27;69.01
54924;BME280;40825;52.270;20.984;2023-02-21T08:03:49;99366.35;;;6.31;68.97
54924;BME280;40825;52.270;20.984;2023-02-21T08:06:15;99373.89;;;6.37;69.04
54924;BME280;40825;52.270;20.984;2023-02-21T08:08:40;99372.77;;;6.35;69.04
54924;BME280;40825;52.270;20.984;2023-02-21T08:11:08;99376.49;;;6.35;69.01
54924;BME280;40825;52.270;20.984;2023-02-21T08:13:33;99378.17;;;6.35;69.16
54924;BME280;40825;52.270;20.984;2023-02-21T08:16:00;99376.46;;;6.32;69.51
54924;BME280;40825;52.270;20.984;2023-02-21T08:18:26;99384.73;;;6.31;70.43
54924;BME280;40825;52.270;20.984;2023-02-21T08:20:53;99383.73;;;6.29;70.56
54924;BME280;40825;52.270;20.984;2023-02-21T08:23:19;99385.77;;;6.26;70.60
54924;BME280;40825;52.270;20.984;2023-02-21T08:25:46;99397.50;;;6.28;70.78
54924;BME280;40825;52.270;20.984;2023-02-21T08:28:12;99395.47;;;6.32;71.22
54924;BME280;40825;52.270;20.984;2023-02-21T08:30:38;99399.73;;;6.36;71.24
54924;BME280;40825;52.270;20.984;2023-02-21T08:33:03;99399.65;;;6.38;71.00
54924;BME280;40825;52.270;20.984;2023-02-21T08:35:29;99398.85;;;6.40;70.65
54924;BME280;40825;52.270;20.984;2023-02-21T08:37:55;99402.27;;;6.43;70.56
54924;BME280;40825;52.270;20.984;2023-02-21T08:40:22;99406.80;;;6.43;70.21
54924;BME280;40825;52.270;20.984;2023-02-21T08:42:49;99414.15;;;6.44;70.29
54924;BME280;40825;52.270;20.984;2023-02-21T08:45:17;99414.73;;;6.45;69.85
54924;BME280;40825;52.270;20.984;2023-02-21T08:47:44;99424.02;;;6.44;69.64
54924;BME280;40825;52.270;20.984;2023-02-21T08:50:09;99424.16;;;6.49;69.98
54924;BME280;40825;52.270;20.984;2023-02-21T08:52:35;99433.62;;;6.54;70.23
54924;BME280;40825;52.270;20.984;2023-02-21T08:55:01;99433.27;;;6.61;69.71
54924;BME280;40825;52.270;20.984;2023-02-21T08:57:27;99437.14;;;6.63;69.73
54924;BME280;40825;52.270;20.984;2023-02-21T08:59:52;99441.41;;;6.66;69.92
54924;BME280;40825;52.270;20.984;2023-02-21T09:02:21;99443.17;;;6.67;69.67
54924;BME280;40825;52.270;20.984;2023-02-21T09:04:47;99451.02;;;6.65;69.98
54924;BME280;40825;52.270;20.984;2023-02-21T09:07:15;99456.80;;;6.63;69.87
54924;BME280;40825;52.270;20.984;2023-02-21T09:09:41;99453.08;;;6.61;69.77
54924;BME280;40825;52.270;20.984;2023-02-21T09:12:07;99458.51;;;6.57;70.09
54924;BME280;40825;52.270;20.984;2023-02-21T09:14:35;99458.23;;;6.54;70.32
54924;BME280;40825;52.270;20.984;2023-02-21T09:17:03;99467.52;;;6.50;70.73
54924;BME280;40825;52.270;20.984;2023-02-21T09:19:28;99469.50;;;6.48;71.22
54924;BME280;40825;52.270;20.984;2023-02-21T09:21:54;99472.32;;;6.50;71.19
54924;BME280;40825;52.270;20.984;2023-02-21T09:24:21;99473.70;;;6.48;71.38
54924;BME280;40825;52.270;20.984;2023-02-21T09:26:53;99476.16;;;6.47;71.50
54924;BME280;40825;52.270;20.984;2023-02-21T09:29:22;99482.96;;;6.45;71.99
54924;BME280;40825;52.270;20.984;2023-02-21T09:31:49;99495.52;;;6.45;72.24
54924;BME280;40825;52.270;20.984;2023-02-21T09:34:15;99496.09;;;6.44;72.69
54924;BME280;40825;52.270;20.984;2023-02-21T09:36:41;99494.87;;;6.52;72.88
54924;BME280;40825;52.270;20.984;2023-02-21T09:39:07;99496.14;;;6.56;73.18
54924;BME280;40825;52.270;20.984;2023-02-21T09:41:34;99500.56;;;6.50;73.27
54924;BME280;40825;52.270;20.984;2023-02-21T09:44:02;99502.09;;;6.42;73.54
54924;BME280;40825;52.270;20.984;2023-02-21T09:47:04;99510.27;;;6.41;73.62
54924;BME280;40825;52.270;20.984;2023-02-21T09:49:34;99516.56;;;6.51;73.57
54924;BME280;40825;52.270;20.984;2023-02-21T09:52:02;99520.70;;;6.53;73.94
54924;BME280;40825;52.270;20.984;2023-02-21T09:54:44;99523.58;;;6.57;74.04
54924;BME280;40825;52.270;20.984;2023-02-21T09:57:14;99529.36;;;6.54;74.07
54924;BME280;40825;52.270;20.984;2023-02-21T09:59:41;99534.52;;;6.56;74.05
54924;BME280;40825;52.270;20.984;2023-02-21T10:04:58;99539.71;;;6.64;74.27
54924;BME280;40825;52.270;20.984;2023-02-21T10:13:05;99546.15;;;6.74;74.40
54924;BME280;40825;52.270;20.984;2023-02-21T10:15:39;99550.98;;;6.79;74.43
54924;BME280;40825;52.270;20.984;2023-02-21T10:18:31;99553.94;;;6.84;74.36
54924;BME280;40825;52.270;20.984;2023-02-21T10:21:03;99558.00;;;6.90;74.11
54924;BME280;40825;52.270;20.984;2023-02-21T10:23:46;99559.77;;;6.92;74.23
54924;BME280;40825;52.270;20.984;2023-02-21T10:26:19;99559.61;;;7.00;74.11
54924;BME280;40825;52.270;20.984;2023-02-21T10:28:47;99567.22;;;7.09;73.51
54924;BME280;40825;52.270;20.984;2023-02-21T10:31:21;99564.27;;;7.12;73.28
54924;BME280;40825;52.270;20.984;2023-02-21T10:33:49;99565.31;;;7.14;73.63
54924;BME280;40825;52.270;20.984;2023-02-21T10:36:18;99566.77;;;7.22;73.82
54924;BME280;40825;52.270;20.984;2023-02-21T10:41:18;99573.45;;;7.11;74.55
54924;BME280;40825;52.270;20.984;2023-02-21T10:43:47;99570.86;;;7.02;75.16
54924;BME280;40825;52.270;20.984;2023-02-21T10:46:27;99577.23;;;6.93;75.12
54924;BME280;40825;52.270;20.984;2023-02-21T10:49:15;99583.34;;;6.79;75.67
54924;BME280;40825;52.270;20.984;2023-02-21T10:51:41;99581.73;;;6.62;76.35
54924;BME280;40825;52.270;20.984;2023-02-21T10:54:21;99586.36;;;6.51;77.99
54924;BME280;40825;52.270;20.984;2023-02-21T10:56:48;99583.56;;;6.43;77.70
54924;BME280;40825;52.270;20.984;2023-02-21T10:59:22;99582.02;;;6.38;78.69
54924;BME280;40825;52.270;20.984;2023-02-21T11:01:50;99584.19;;;6.38;78.55
54924;BME280;40825;52.270;20.984;2023-02-21T11:06:48;99601.08;;;6.53;77.88
54924;BME280;40825;52.270;20.984;2023-02-21T11:14:42;99601.30;;;6.55;76.66
54924;BME280;40825;52.270;20.984;2023-02-21T11:17:16;99602.99;;;6.60;76.56
54924;BME280;40825;52.270;20.984;2023-02-21T11:20:35;99608.27;;;6.61;76.34
54924;BME280;40825;52.270;20.984;2023-02-21T11:22:41;99606.50;;;6.57;76.04
54924;BME280;40825;52.270;20.984;2023-02-21T11:25:21;99615.29;;;6.57;76.01
54924;BME280;40825;52.270;20.984;2023-02-21T11:30:42;99620.60;;;6.81;74.54
54924;BME280;40825;52.270;20.984;2023-02-21T11:33:11;99624.33;;;6.96;73.86
54924;BME280;40825;52.270;20.984;2023-02-21T11:35:43;99626.16;;;7.00;72.96
54924;BME280;40825;52.270;20.984;2023-02-21T11:38:32;99624.73;;;7.00;72.13
54924;BME280;40825;52.270;20.984;2023-02-21T11:41:01;99621.77;;;7.00;72.28
54924;BME280;40825;52.270;20.984;2023-02-21T11:43:30;99626.38;;;6.97;72.12
54924;BME280;40825;52.270;20.984;2023-02-21T11:51:55;99624.33;;;6.93;73.05
54924;BME280;40825;52.270;20.984;2023-02-21T11:54:26;99624.77;;;6.88;73.74
54924;BME280;40825;52.270;20.984;2023-02-21T11:57:01;99627.81;;;6.77;74.68
54924;BME280;40825;52.270;20.984;2023-02-21T11:59:43;99634.51;;;6.83;73.91
54924;BME280;40825;52.270;20.984;2023-02-21T12:16:26;99660.31;;;6.68;75.27
54924;BME280;40825;52.270;20.984;2023-02-21T12:22:02;99657.37;;;6.45;78.09
54924;BME280;40825;52.270;20.984;2023-02-21T12:24:39;99656.02;;;6.40;78.34
54924;BME280;40825;52.270;20.984;2023-02-21T12:44:16;99667.90;;;6.97;73.96
54924;BME280;40825;52.270;20.984;2023-02-21T12:47:00;99666.92;;;7.02;74.22
54924;BME280;40825;52.270;20.984;2023-02-21T12:49:48;99667.52;;;7.10;74.22
54924;BME280;40825;52.270;20.984;2023-02-21T12:57:30;99667.96;;;7.25;73.40
54924;BME280;40825;52.270;20.984;2023-02-21T13:00:26;99669.44;;;7.28;73.27
54924;BME280;40825;52.270;20.984;2023-02-21T13:05:58;99675.04;;;7.44;72.79
54924;BME280;40825;52.270;20.984;2023-02-21T13:08:31;99677.04;;;7.49;71.88
54924;BME280;40825;52.270;20.984;2023-02-21T13:11:08;99686.05;;;7.46;71.44
54924;BME280;40825;52.270;20.984;2023-02-21T13:13:35;99687.28;;;7.48;71.26
54924;BME280;40825;52.270;20.984;2023-02-21T13:16:04;99689.66;;;7.52;70.50
54924;BME280;40825;52.270;20.984;2023-02-21T13:18:34;99697.22;;;7.52;70.70
54924;BME280;40825;52.270;20.984;2023-02-21T13:23:58;99692.73;;;7.48;69.10
54924;BME280;40825;52.270;20.984;2023-02-21T13:29:28;99704.40;;;7.39;69.21
54924;BME280;40825;52.270;20.984;2023-02-21T13:32:07;99707.33;;;7.34;69.34
54924;BME280;40825;52.270;20.984;2023-02-21T13:34:37;99716.63;;;7.26;70.07
54924;BME280;40825;52.270;20.984;2023-02-21T13:37:07;99719.34;;;7.24;69.93
54924;BME280;40825;52.270;20.984;2023-02-21T13:39:44;99723.02;;;7.19;69.87
54924;BME280;40825;52.270;20.984;2023-02-21T13:42:20;99725.45;;;7.13;70.40
54924;BME280;40825;52.270;20.984;2023-02-21T13:50:44;99732.36;;;7.10;71.34
54924;BME280;40825;52.270;20.984;2023-02-21T13:56:56;99742.91;;;7.05;71.03
54924;BME280;40825;52.270;20.984;2023-02-21T14:01:48;99748.91;;;6.96;71.68
54924;BME280;40825;52.270;20.984;2023-02-21T14:07:41;99747.77;;;6.93;71.85
54924;BME280;40825;52.270;20.984;2023-02-21T14:13:06;99756.74;;;6.89;71.76
54924;BME280;40825;52.270;20.984;2023-02-21T14:15:41;99758.94;;;6.88;71.74
54924;BME280;40825;52.270;20.984;2023-02-21T14:18:24;99762.51;;;6.86;71.83
54924;BME280;40825;52.270;20.984;2023-02-21T14:20:54;99759.33;;;6.87;71.68
54924;BME280;40825;52.270;20.984;2023-02-21T14:23:22;99764.42;;;6.87;71.40
54924;BME280;40825;52.270;20.984;2023-02-21T14:25:54;99770.98;;;6.88;70.99
54924;BME280;40825;52.270;20.984;2023-02-21T14:28:50;99771.00;;;6.87;70.73
54924;BME280;40825;52.270;20.984;2023-02-21T14:31:56;99772.80;;;6.85;71.22
54924;BME280;40825;52.270;20.984;2023-02-21T14:37:35;99778.10;;;6.93;70.43
54924;BME280;40825;52.270;20.984;2023-02-21T14:52:57;99784.49;;;6.88;70.08
54924;BME280;40825;52.270;20.984;2023-02-21T15:03:48;99793.54;;;6.82;70.33
54924;BME280;40825;52.270;20.984;2023-02-21T15:06:20;99795.98;;;6.82;70.42
54924;BME280;40825;52.270;20.984;2023-02-21T15:08:48;99799.91;;;6.80;70.89
54924;BME280;40825;52.270;20.984;2023-02-21T15:11:25;99803.77;;;6.79;70.91
54924;BME280;40825;52.270;20.984;2023-02-21T15:14:18;99808.38;;;6.80;71.02
54924;BME280;40825;52.270;20.984;2023-02-21T15:17:11;99815.95;;;6.79;70.85
54924;BME280;40825;52.270;20.984;2023-02-21T15:19:34;99822.23;;;6.77;70.85
54924;BME280;40825;52.270;20.984;2023-02-21T15:30:19;99836.23;;;6.69;71.18
54924;BME280;40825;52.270;20.984;2023-02-21T15:35:25;99838.86;;;6.69;71.39
54924;BME280;40825;52.270;20.984;2023-02-21T15:37:55;99845.70;;;6.69;71.55
54924;BME280;40825;52.270;20.984;2023-02-21T15:40:23;99845.47;;;6.70;71.42
54924;BME280;40825;52.270;20.984;2023-02-21T15:42:51;99845.80;;;6.70;71.30
54924;BME280;40825;52.270;20.984;2023-02-21T15:45:26;99846.33;;;6.67;71.35
54924;BME280;40825;52.270;20.984;2023-02-21T15:47:55;99852.01;;;6.65;71.36
54924;BME280;40825;52.270;20.984;2023-02-21T15:50:38;99857.66;;;6.64;71.31
54924;BME280;40825;52.270;20.984;2023-02-21T15:53:21;99857.80;;;6.63;71.58
54924;BME280;40825;52.270;20.984;2023-02-21T15:55:49;99860.45;;;6.63;71.44
54924;BME280;40825;52.270;20.984;2023-02-21T15:58:25;99861.78;;;6.62;71.41
54924;BME280;40825;52.270;20.984;2023-02-21T16:01:10;99863.65;;;6.61;71.51
54924;BME280;40825;52.270;20.984;2023-02-21T16:03:38;99868.66;;;6.59;71.49
54924;BME280;40825;52.270;20.984;2023-02-21T16:09:20;99876.91;;;6.53;71.57
54924;BME280;40825;52.270;20.984;2023-02-21T16:19:58;99887.38;;;6.50;71.69
54924;BME280;40825;52.270;20.984;2023-02-21T16:22:37;99892.85;;;6.51;71.75
54924;BME280;40825;52.270;20.984;2023-02-21T16:25:16;99897.44;;;6.51;71.65